sensor_id;sensor_type;location;lat;lon;timestamp;pressure;altitude;pressure_sealevel;temperature
76583;BMP280;65462;52.148;7.940;2023-01-24T00:02:18;102994.22;;;2.70
76583;BMP280;65462;52.148;7.940;2023-01-24T00:04:44;102998.47;;;2.71
76583;BMP280;65462;52.148;7.940;2023-01-24T00:07:09;102991.41;;;2.71
76583;BMP280;65462;52.148;7.940;2023-01-24T00:09:34;102997.84;;;2.69
76583;BMP280;65462;52.148;7.940;2023-01-24T00:11:59;102994.00;;;2.71
76583;BMP280;65462;52.148;7.940;2023-01-24T00:14:25;102985.59;;;2.69
76583;BMP280;65462;52.148;7.940;2023-01-24T00:16:50;102990.81;;;2.69
76583;BMP280;65462;52.148;7.940;2023-01-24T00:19:15;102989.00;;;2.70
76583;BMP280;65462;52.148;7.940;2023-01-24T00:21:40;102997.44;;;2.72
76583;BMP280;65462;52.148;7.940;2023-01-24T00:24:06;102990.63;;;2.71
76583;BMP280;65462;52.148;7.940;2023-01-24T00:26:31;102985.81;;;2.68
76583;BMP280;65462;52.148;7.940;2023-01-24T00:28:56;102992.03;;;2.73
76583;BMP280;65462;52.148;7.940;2023-01-24T00:31:23;102977.75;;;2.69
76583;BMP280;65462;52.148;7.940;2023-01-24T00:33:48;102982.56;;;2.66
76583;BMP280;65462;52.148;7.940;2023-01-24T00:36:14;102986.19;;;2.65
76583;BMP280;65462;52.148;7.940;2023-01-24T00:38:39;102987.00;;;2.65
76583;BMP280;65462;52.148;7.940;2023-01-24T00:41:05;102985.19;;;2.66
76583;BMP280;65462;52.148;7.940;2023-01-24T00:43:30;102990.00;;;2.69
76583;BMP280;65462;52.148;7.940;2023-01-24T00:45:56;102992.03;;;2.67
76583;BMP280;65462;52.148;7.940;2023-01-24T00:48:22;102986.00;;;2.66
76583;BMP280;65462;52.148;7.940;2023-01-24T00:50:47;102997.66;;;2.70
76583;BMP280;65462;52.148;7.940;2023-01-24T00:53:12;102996.84;;;2.70
76583;BMP280;65462;52.148;7.940;2023-01-24T00:55:45;102986.19;;;2.71
76583;BMP280;65462;52.148;7.940;2023-01-24T00:58:11;102984.19;;;2.67
76583;BMP280;65462;52.148;7.940;2023-01-24T01:00:37;102988.59;;;2.66
76583;BMP280;65462;52.148;7.940;2023-01-24T01:03:05;102995.22;;;2.69
76583;BMP280;65462;52.148;7.940;2023-01-24T01:05:30;102993.63;;;2.68
76583;BMP280;65462;52.148;7.940;2023-01-24T01:07:55;102985.00;;;2.67
76583;BMP280;65462;52.148;7.940;2023-01-24T01:10:21;102989.19;;;2.68
76583;BMP280;65462;52.148;7.940;2023-01-24T01:12:46;102979.97;;;2.66
76583;BMP280;65462;52.148;7.940;2023-01-24T01:15:11;102979.56;;;2.69
76583;BMP280;65462;52.148;7.940;2023-01-24T01:17:37;102986.00;;;2.66
76583;BMP280;65462;52.148;7.940;2023-01-24T01:20:02;102988.41;;;2.68
76583;BMP280;65462;52.148;7.940;2023-01-24T01:22:27;102988.41;;;2.68
76583;BMP280;65462;52.148;7.940;2023-01-24T01:24:53;102973.19;;;2.58
76583;BMP280;65462;52.148;7.940;2023-01-24T01:27:18;102987.63;;;2.67
76583;BMP280;65462;52.148;7.940;2023-01-24T01:29:43;102995.44;;;2.67
76583;BMP280;65462;52.148;7.940;2023-01-24T01:32:08;102989.59;;;2.72
76583;BMP280;65462;52.148;7.940;2023-01-24T01:34:34;102973.94;;;2.65
76583;BMP280;65462;52.148;7.940;2023-01-24T01:36:59;102985.41;;;2.64
76583;BMP280;65462;52.148;7.940;2023-01-24T01:39:24;102979.16;;;2.65
76583;BMP280;65462;52.148;7.940;2023-01-24T01:41:49;102986.19;;;2.65
76583;BMP280;65462;52.148;7.940;2023-01-24T01:44:29;102966.09;;;2.65
76583;BMP280;65462;52.148;7.940;2023-01-24T01:47:34;102953.47;;;2.69
76583;BMP280;65462;52.148;7.940;2023-01-24T01:50:11;102951.88;;;2.68
76583;BMP280;65462;52.148;7.940;2023-01-24T01:52:41;102959.31;;;2.64
76583;BMP280;65462;52.148;7.940;2023-01-24T01:55:14;102950.66;;;2.64
76583;BMP280;65462;52.148;7.940;2023-01-24T01:57:41;102953.06;;;2.65
76583;BMP280;65462;52.148;7.940;2023-01-24T02:00:07;102956.06;;;2.62
76583;BMP280;65462;52.148;7.940;2023-01-24T02:02:34;102957.91;;;2.62
76583;BMP280;65462;52.148;7.940;2023-01-24T02:05:03;102958.69;;;2.62
76583;BMP280;65462;52.148;7.940;2023-01-24T02:09:59;102954.28;;;2.63
76583;BMP280;65462;52.148;7.940;2023-01-24T02:12:30;102948.06;;;2.64
76583;BMP280;65462;52.148;7.940;2023-01-24T02:15:02;102955.28;;;2.62
76583;BMP280;65462;52.148;7.940;2023-01-24T02:17:46;102950.09;;;2.62
76583;BMP280;65462;52.148;7.940;2023-01-24T02:20:37;102950.09;;;2.62
76583;BMP280;65462;52.148;7.940;2023-01-24T02:26:07;102963.13;;;2.62
76583;BMP280;65462;52.148;7.940;2023-01-24T02:28:32;102964.16;;;2.61
76583;BMP280;65462;52.148;7.940;2023-01-24T02:30:59;102965.72;;;2.62
76583;BMP280;65462;52.148;7.940;2023-01-24T02:33:25;102961.53;;;2.61
76583;BMP280;65462;52.148;7.940;2023-01-24T02:35:50;102960.13;;;2.58
76583;BMP280;65462;52.148;7.940;2023-01-24T02:38:28;102966.75;;;2.61
76583;BMP280;65462;52.148;7.940;2023-01-24T02:40:57;102966.50;;;2.62
76583;BMP280;65462;52.148;7.940;2023-01-24T02:43:31;102968.56;;;2.60
76583;BMP280;65462;52.148;7.940;2023-01-24T02:45:58;102964.72;;;2.63
76583;BMP280;65462;52.148;7.940;2023-01-24T02:48:24;102958.31;;;2.59
76583;BMP280;65462;52.148;7.940;2023-01-24T02:50:49;102957.72;;;2.57
76583;BMP280;65462;52.148;7.940;2023-01-24T02:53:33;102949.91;;;2.57
76583;BMP280;65462;52.148;7.940;2023-01-24T02:56:04;102955.09;;;2.57
76583;BMP280;65462;52.148;7.940;2023-01-24T02:58:48;102957.31;;;2.53
76583;BMP280;65462;52.148;7.940;2023-01-24T03:01:14;102954.13;;;2.58
76583;BMP280;65462;52.148;7.940;2023-01-24T03:03:41;102952.69;;;2.55
76583;BMP280;65462;52.148;7.940;2023-01-24T03:06:07;102949.31;;;2.55
76583;BMP280;65462;52.148;7.940;2023-01-24T03:08:33;102940.84;;;2.53
76583;BMP280;65462;52.148;7.940;2023-01-24T03:10:59;102948.91;;;2.58
76583;BMP280;65462;52.148;7.940;2023-01-24T03:13:25;102947.28;;;2.57
76583;BMP280;65462;52.148;7.940;2023-01-24T03:16:10;102936.84;;;2.57
76583;BMP280;65462;52.148;7.940;2023-01-24T03:18:54;102942.66;;;2.59
76583;BMP280;65462;52.148;7.940;2023-01-24T03:21:38;102943.06;;;2.56
76583;BMP280;65462;52.148;7.940;2023-01-24T03:24:22;102942.47;;;2.54
76583;BMP280;65462;52.148;7.940;2023-01-24T03:27:07;102944.47;;;2.52
76583;BMP280;65462;52.148;7.940;2023-01-24T03:29:51;102942.47;;;2.54
76583;BMP280;65462;52.148;7.940;2023-01-24T03:32:34;102940.84;;;2.53
76583;BMP280;65462;52.148;7.940;2023-01-24T03:35:19;102940.25;;;2.51
76583;BMP280;65462;52.148;7.940;2023-01-24T03:37:44;102948.09;;;2.51
76583;BMP280;65462;52.148;7.940;2023-01-24T03:40:29;102948.47;;;2.48
76583;BMP280;65462;52.148;7.940;2023-01-24T03:42:54;102946.88;;;2.47
76583;BMP280;65462;52.148;7.940;2023-01-24T03:45:22;102943.66;;;2.45
76583;BMP280;65462;52.148;7.940;2023-01-24T03:47:53;102960.91;;;2.46
76583;BMP280;65462;52.148;7.940;2023-01-24T03:50:31;102951.09;;;2.48
76583;BMP280;65462;52.148;7.940;2023-01-24T03:53:16;102953.69;;;2.48
76583;BMP280;65462;52.148;7.940;2023-01-24T03:55:42;102963.31;;;2.47
76583;BMP280;65462;52.148;7.940;2023-01-24T03:58:08;102960.72;;;2.47
76583;BMP280;65462;52.148;7.940;2023-01-24T04:00:34;102960.50;;;2.49
76583;BMP280;65462;52.148;7.940;2023-01-24T04:03:00;102958.28;;;2.46
76583;BMP280;65462;52.148;7.940;2023-01-24T04:05:26;102961.13;;;2.44
76583;BMP280;65462;52.148;7.940;2023-01-24T04:07:53;102951.28;;;2.46
76583;BMP280;65462;52.148;7.940;2023-01-24T04:10:19;102952.69;;;2.49
76583;BMP280;65462;52.148;7.940;2023-01-24T04:12:45;102957.31;;;2.47
76583;BMP280;65462;52.148;7.940;2023-01-24T04:15:17;102953.06;;;2.46
76583;BMP280;65462;52.148;7.940;2023-01-24T04:17:43;102956.09;;;2.43
76583;BMP280;65462;52.148;7.940;2023-01-24T04:20:09;102977.75;;;2.43
76583;BMP280;65462;52.148;7.940;2023-01-24T04:22:34;102958.69;;;2.43
76583;BMP280;65462;52.148;7.940;2023-01-24T04:25:00;102961.31;;;2.43
76583;BMP280;65462;52.148;7.940;2023-01-24T04:27:25;102960.91;;;2.46
76583;BMP280;65462;52.148;7.940;2023-01-24T04:29:50;102952.09;;;2.47
76583;BMP280;65462;52.148;7.940;2023-01-24T04:32:15;102960.91;;;2.46
76583;BMP280;65462;52.148;7.940;2023-01-24T04:34:40;102955.91;;;2.44
76583;BMP280;65462;52.148;7.940;2023-01-24T04:37:06;102941.63;;;2.40
76583;BMP280;65462;52.148;7.940;2023-01-24T04:39:31;102957.28;;;2.40
76583;BMP280;65462;52.148;7.940;2023-01-24T04:41:56;102945.25;;;2.39
76583;BMP280;65462;52.148;7.940;2023-01-24T04:44:21;102938.44;;;2.38
76583;BMP280;65462;52.148;7.940;2023-01-24T04:46:47;102941.03;;;2.38
76583;BMP280;65462;52.148;7.940;2023-01-24T04:49:12;102942.03;;;2.37
76583;BMP280;65462;52.148;7.940;2023-01-24T04:51:37;102947.06;;;2.39
76583;BMP280;65462;52.148;7.940;2023-01-24T04:54:07;102940.03;;;2.39
76583;BMP280;65462;52.148;7.940;2023-01-24T04:56:32;102942.84;;;2.38
76583;BMP280;65462;52.148;7.940;2023-01-24T04:58:57;102948.88;;;2.38
76583;BMP280;65462;52.148;7.940;2023-01-24T05:01:23;102953.69;;;2.41
76583;BMP280;65462;52.148;7.940;2023-01-24T05:03:48;102958.91;;;2.35
76583;BMP280;65462;52.148;7.940;2023-01-24T05:06:13;102962.50;;;2.34
76583;BMP280;65462;52.148;7.940;2023-01-24T05:08:38;102945.22;;;2.33
76583;BMP280;65462;52.148;7.940;2023-01-24T05:11:04;102952.28;;;2.32
76583;BMP280;65462;52.148;7.940;2023-01-24T05:13:29;102954.66;;;2.34
76583;BMP280;65462;52.148;7.940;2023-01-24T05:15:54;102957.28;;;2.34
76583;BMP280;65462;52.148;7.940;2023-01-24T05:18:20;102960.88;;;2.33
76583;BMP280;65462;52.148;7.940;2023-01-24T05:20:45;102950.09;;;2.36
76583;BMP280;65462;52.148;7.940;2023-01-24T05:23:10;102971.72;;;2.36
76583;BMP280;65462;52.148;7.940;2023-01-24T05:25:36;102965.91;;;2.34
76583;BMP280;65462;52.148;7.940;2023-01-24T05:28:01;102967.72;;;2.34
76583;BMP280;65462;52.148;7.940;2023-01-24T05:30:26;102968.91;;;2.31
76583;BMP280;65462;52.148;7.940;2023-01-24T05:32:56;102972.50;;;2.30
76583;BMP280;65462;52.148;7.940;2023-01-24T05:35:21;102970.13;;;2.29
76583;BMP280;65462;52.148;7.940;2023-01-24T05:37:46;102975.34;;;2.29
76583;BMP280;65462;52.148;7.940;2023-01-24T05:40:11;102971.34;;;2.26
76583;BMP280;65462;52.148;7.940;2023-01-24T05:42:37;102984.19;;;2.28
76583;BMP280;65462;52.148;7.940;2023-01-24T05:45:02;102964.94;;;2.22
76583;BMP280;65462;52.148;7.940;2023-01-24T05:47:28;102982.38;;;2.28
76583;BMP280;65462;52.148;7.940;2023-01-24T05:49:53;102984.19;;;2.28
76583;BMP280;65462;52.148;7.940;2023-01-24T05:52:18;102983.38;;;2.27
76583;BMP280;65462;52.148;7.940;2023-01-24T05:54:50;102987.00;;;2.26
76583;BMP280;65462;52.148;7.940;2023-01-24T05:57:16;102991.41;;;2.26
76583;BMP280;65462;52.148;7.940;2023-01-24T05:59:41;102988.16;;;2.30
76583;BMP280;65462;52.148;7.940;2023-01-24T06:02:06;102989.41;;;2.28
76583;BMP280;65462;52.148;7.940;2023-01-24T06:04:32;102997.00;;;2.29
76583;BMP280;65462;52.148;7.940;2023-01-24T06:06:57;102992.00;;;2.28
76583;BMP280;65462;52.148;7.940;2023-01-24T06:09:22;102988.59;;;2.27
76583;BMP280;65462;52.148;7.940;2023-01-24T06:11:48;102998.59;;;2.24
76583;BMP280;65462;52.148;7.940;2023-01-24T06:14:14;102993.41;;;2.24
76583;BMP280;65462;52.148;7.940;2023-01-24T06:16:39;102996.22;;;2.22
76583;BMP280;65462;52.148;7.940;2023-01-24T06:19:05;102997.44;;;2.26
76583;BMP280;65462;52.148;7.940;2023-01-24T06:24:21;103000.03;;;2.26
76583;BMP280;65462;52.148;7.940;2023-01-24T06:26:48;103002.44;;;2.28
76583;BMP280;65462;52.148;7.940;2023-01-24T06:29:15;103001.84;;;2.32
76583;BMP280;65462;52.148;7.940;2023-01-24T06:31:46;103006.84;;;2.34
76583;BMP280;65462;52.148;7.940;2023-01-24T06:34:23;103008.84;;;2.25
76583;BMP280;65462;52.148;7.940;2023-01-24T06:39:23;103001.59;;;2.21
76583;BMP280;65462;52.148;7.940;2023-01-24T06:41:48;103001.59;;;2.21
76583;BMP280;65462;52.148;7.940;2023-01-24T06:44:14;102998.00;;;2.15
76583;BMP280;65462;52.148;7.940;2023-01-24T06:46:39;103012.66;;;2.23
76583;BMP280;65462;52.148;7.940;2023-01-24T06:49:05;103012.03;;;2.21
76583;BMP280;65462;52.148;7.940;2023-01-24T06:51:30;103009.44;;;2.27
76583;BMP280;65462;52.148;7.940;2023-01-24T06:53:55;103010.66;;;2.25
76583;BMP280;65462;52.148;7.940;2023-01-24T06:56:21;103011.06;;;2.22
76583;BMP280;65462;52.148;7.940;2023-01-24T06:58:46;103011.06;;;2.22
76583;BMP280;65462;52.148;7.940;2023-01-24T07:01:12;103011.22;;;2.20
76583;BMP280;65462;52.148;7.940;2023-01-24T07:03:38;103017.47;;;2.19
76583;BMP280;65462;52.148;7.940;2023-01-24T07:06:03;103020.66;;;2.21
76583;BMP280;65462;52.148;7.940;2023-01-24T07:08:28;103023.88;;;2.23
76583;BMP280;65462;52.148;7.940;2023-01-24T07:10:57;103029.91;;;2.24
76583;BMP280;65462;52.148;7.940;2023-01-24T07:13:23;103031.91;;;2.22
76583;BMP280;65462;52.148;7.940;2023-01-24T07:15:48;103027.28;;;2.24
76583;BMP280;65462;52.148;7.940;2023-01-24T07:18:15;103033.53;;;2.23
76583;BMP280;65462;52.148;7.940;2023-01-24T07:20:41;103032.91;;;2.21
76583;BMP280;65462;52.148;7.940;2023-01-24T07:23:19;103027.09;;;2.18
76583;BMP280;65462;52.148;7.940;2023-01-24T07:25:45;103033.91;;;2.20
76583;BMP280;65462;52.148;7.940;2023-01-24T07:28:10;103031.50;;;2.18
76583;BMP280;65462;52.148;7.940;2023-01-24T07:30:36;103030.09;;;2.15
76583;BMP280;65462;52.148;7.940;2023-01-24T07:33:01;103031.31;;;2.20
76583;BMP280;65462;52.148;7.940;2023-01-24T07:35:27;103039.91;;;2.20
76583;BMP280;65462;52.148;7.940;2023-01-24T07:37:52;103038.50;;;2.17
76583;BMP280;65462;52.148;7.940;2023-01-24T07:40:18;103036.28;;;2.14
76583;BMP280;65462;52.148;7.940;2023-01-24T07:42:43;103037.69;;;2.17
76583;BMP280;65462;52.148;7.940;2023-01-24T07:45:09;103042.09;;;2.16
76583;BMP280;65462;52.148;7.940;2023-01-24T07:47:34;103043.72;;;2.17
76583;BMP280;65462;52.148;7.940;2023-01-24T07:49:59;103057.56;;;2.18
76583;BMP280;65462;52.148;7.940;2023-01-24T07:52:24;103049.56;;;2.20
76583;BMP280;65462;52.148;7.940;2023-01-24T07:54:50;103057.78;;;2.23
76583;BMP280;65462;52.148;7.940;2023-01-24T07:57:15;103049.34;;;2.21
76583;BMP280;65462;52.148;7.940;2023-01-24T07:59:41;103056.38;;;2.21
76583;BMP280;65462;52.148;7.940;2023-01-24T08:02:09;103055.38;;;2.22
76583;BMP280;65462;52.148;7.940;2023-01-24T08:04:35;103060.19;;;2.25
76583;BMP280;65462;52.148;7.940;2023-01-24T08:07:00;103059.22;;;2.26
76583;BMP280;65462;52.148;7.940;2023-01-24T08:09:46;103063.81;;;2.24
76583;BMP280;65462;52.148;7.940;2023-01-24T08:12:12;103066.00;;;2.20
76583;BMP280;65462;52.148;7.940;2023-01-24T08:14:37;103066.78;;;2.21
76583;BMP280;65462;52.148;7.940;2023-01-24T08:17:03;103075.25;;;2.23
76583;BMP280;65462;52.148;7.940;2023-01-24T08:19:28;103068.41;;;2.22
76583;BMP280;65462;52.148;7.940;2023-01-24T08:21:53;103076.25;;;2.22
76583;BMP280;65462;52.148;7.940;2023-01-24T08:24:19;103073.63;;;2.22
76583;BMP280;65462;52.148;7.940;2023-01-24T08:26:44;103084.06;;;2.22
76583;BMP280;65462;52.148;7.940;2023-01-24T08:29:12;103074.44;;;2.22
76583;BMP280;65462;52.148;7.940;2023-01-24T08:31:37;103066.78;;;2.21
76583;BMP280;65462;52.148;7.940;2023-01-24T08:34:02;103064.19;;;2.21
76583;BMP280;65462;52.148;7.940;2023-01-24T08:36:28;103069.41;;;2.21
76583;BMP280;65462;52.148;7.940;2023-01-24T08:38:53;103066.41;;;2.24
76583;BMP280;65462;52.148;7.940;2023-01-24T08:41:18;103073.63;;;2.22
76583;BMP280;65462;52.148;7.940;2023-01-24T08:43:43;103079.25;;;2.25
76583;BMP280;65462;52.148;7.940;2023-01-24T08:46:09;103076.44;;;2.27
76583;BMP280;65462;52.148;7.940;2023-01-24T08:48:34;103077.47;;;2.26
76583;BMP280;65462;52.148;7.940;2023-01-24T08:51:02;103074.84;;;2.26
76583;BMP280;65462;52.148;7.940;2023-01-24T08:53:28;103081.06;;;2.25
76583;BMP280;65462;52.148;7.940;2023-01-24T08:55:53;103081.88;;;2.25
76583;BMP280;65462;52.148;7.940;2023-01-24T08:58:19;103084.47;;;2.25
76583;BMP280;65462;52.148;7.940;2023-01-24T09:00:45;103101.53;;;2.28
76583;BMP280;65462;52.148;7.940;2023-01-24T09:03:11;103088.06;;;2.31
76583;BMP280;65462;52.148;7.940;2023-01-24T09:05:37;103093.13;;;2.32
76583;BMP280;65462;52.148;7.940;2023-01-24T09:08:03;103096.72;;;2.31
76583;BMP280;65462;52.148;7.940;2023-01-24T09:10:29;103096.50;;;2.33
76583;BMP280;65462;52.148;7.940;2023-01-24T09:12:54;103093.13;;;2.32
76583;BMP280;65462;52.148;7.940;2023-01-24T09:15:20;103096.91;;;2.36
76583;BMP280;65462;52.148;7.940;2023-01-24T09:17:45;103098.13;;;2.34
76583;BMP280;65462;52.148;7.940;2023-01-24T09:20:11;103095.34;;;2.35
76583;BMP280;65462;52.148;7.940;2023-01-24T09:22:36;103102.94;;;2.37
76583;BMP280;65462;52.148;7.940;2023-01-24T09:25:02;103109.19;;;2.36
76583;BMP280;65462;52.148;7.940;2023-01-24T09:27:29;103112.56;;;2.36
76583;BMP280;65462;52.148;7.940;2023-01-24T09:29:54;103112.56;;;2.36
76583;BMP280;65462;52.148;7.940;2023-01-24T09:32:19;103121.63;;;2.40
76583;BMP280;65462;52.148;7.940;2023-01-24T09:34:45;103107.78;;;2.40
76583;BMP280;65462;52.148;7.940;2023-01-24T09:37:21;103118.19;;;2.40
76583;BMP280;65462;52.148;7.940;2023-01-24T09:39:46;103120.63;;;2.41
76583;BMP280;65462;52.148;7.940;2023-01-24T09:50:04;103120.03;;;2.46
76583;BMP280;65462;52.148;7.940;2023-01-24T09:52:39;103119.03;;;2.47
76583;BMP280;65462;52.148;7.940;2023-01-24T10:00:28;103118.66;;;2.50
76583;BMP280;65462;52.148;7.940;2023-01-24T10:02:56;103113.44;;;2.50
76583;BMP280;65462;52.148;7.940;2023-01-24T10:05:25;103109.03;;;2.50
76583;BMP280;65462;52.148;7.940;2023-01-24T10:08:10;103106.41;;;2.50
76583;BMP280;65462;52.148;7.940;2023-01-24T10:10:44;103107.81;;;2.53
76583;BMP280;65462;52.148;7.940;2023-01-24T10:13:17;103108.63;;;2.53
76583;BMP280;65462;52.148;7.940;2023-01-24T10:16:01;103118.88;;;2.55
76583;BMP280;65462;52.148;7.940;2023-01-24T10:21:34;103117.47;;;2.59
76583;BMP280;65462;52.148;7.940;2023-01-24T10:24:17;103112.25;;;2.65
76583;BMP280;65462;52.148;7.940;2023-01-24T10:26:49;103109.03;;;2.63
76583;BMP280;65462;52.148;7.940;2023-01-24T10:29:30;103114.84;;;2.65
76583;BMP280;65462;52.148;7.940;2023-01-24T10:32:02;103114.84;;;2.65
76583;BMP280;65462;52.148;7.940;2023-01-24T10:34:39;103112.66;;;2.69
76583;BMP280;65462;52.148;7.940;2023-01-24T10:39:42;103106.22;;;2.65
76583;BMP280;65462;52.148;7.940;2023-01-24T10:42:26;103116.47;;;2.66
76583;BMP280;65462;52.148;7.940;2023-01-24T10:44:54;103107.84;;;2.66
76583;BMP280;65462;52.148;7.940;2023-01-24T10:47:38;103099.63;;;2.69
76583;BMP280;65462;52.148;7.940;2023-01-24T10:50:07;103105.03;;;2.67
76583;BMP280;65462;52.148;7.940;2023-01-24T10:52:33;103107.44;;;2.69
76583;BMP280;65462;52.148;7.940;2023-01-24T10:55:00;103104.66;;;2.70
76583;BMP280;65462;52.148;7.940;2023-01-24T10:57:39;103099.03;;;2.73
76583;BMP280;65462;52.148;7.940;2023-01-24T11:02:41;103099.44;;;2.77
76583;BMP280;65462;52.148;7.940;2023-01-24T11:05:12;103087.81;;;2.80
76583;BMP280;65462;52.148;7.940;2023-01-24T11:07:44;103083.56;;;2.79
76583;BMP280;65462;52.148;7.940;2023-01-24T11:10:26;103084.38;;;2.79
76583;BMP280;65462;52.148;7.940;2023-01-24T11:12:54;103087.97;;;2.78
76583;BMP280;65462;52.148;7.940;2023-01-24T11:15:31;103085.59;;;2.77
76583;BMP280;65462;52.148;7.940;2023-01-24T11:18:26;103076.94;;;2.76
76583;BMP280;65462;52.148;7.940;2023-01-24T11:21:12;103084.19;;;2.74
76583;BMP280;65462;52.148;7.940;2023-01-24T11:23:38;103079.38;;;2.78
76583;BMP280;65462;52.148;7.940;2023-01-24T11:26:05;103074.16;;;2.78
76583;BMP280;65462;52.148;7.940;2023-01-24T11:28:36;103089.59;;;2.79
76583;BMP280;65462;52.148;7.940;2023-01-24T11:31:06;103077.53;;;2.78
76583;BMP280;65462;52.148;7.940;2023-01-24T11:40:13;103063.50;;;2.79
76583;BMP280;65462;52.148;7.940;2023-01-24T11:42:48;103061.47;;;2.81
76583;BMP280;65462;52.148;7.940;2023-01-24T11:50:46;103055.50;;;2.87
76583;BMP280;65462;52.148;7.940;2023-01-24T11:56:29;103052.25;;;2.85
76583;BMP280;65462;52.148;7.940;2023-01-24T12:07:02;103045.84;;;2.88
76583;BMP280;65462;52.148;7.940;2023-01-24T12:09:34;103039.84;;;2.87
76583;BMP280;65462;52.148;7.940;2023-01-24T12:12:11;103042.44;;;2.87
76583;BMP280;65462;52.148;7.940;2023-01-24T12:15:22;103039.63;;;2.89
76583;BMP280;65462;52.148;7.940;2023-01-24T12:25:56;103020.72;;;2.93
76583;BMP280;65462;52.148;7.940;2023-01-24T12:28:31;103017.09;;;2.94
76583;BMP280;65462;52.148;7.940;2023-01-24T12:31:00;103018.50;;;2.97
76583;BMP280;65462;52.148;7.940;2023-01-24T12:33:46;103015.69;;;2.98
76583;BMP280;65462;52.148;7.940;2023-01-24T12:36:32;103013.69;;;3.00
76583;BMP280;65462;52.148;7.940;2023-01-24T12:39:04;103010.69;;;2.97
76583;BMP280;65462;52.148;7.940;2023-01-24T12:41:36;103019.28;;;2.97
76583;BMP280;65462;52.148;7.940;2023-01-24T12:45:04;103014.28;;;2.96
76583;BMP280;65462;52.148;7.940;2023-01-24T12:47:37;103015.50;;;2.93
76583;BMP280;65462;52.148;7.940;2023-01-24T12:50:19;103011.88;;;2.94
76583;BMP280;65462;52.148;7.940;2023-01-24T12:53:08;103006.06;;;2.99
76583;BMP280;65462;52.148;7.940;2023-01-24T12:55:45;103002.22;;;3.01
76583;BMP280;65462;52.148;7.940;2023-01-24T12:58:31;102995.22;;;2.95
76583;BMP280;65462;52.148;7.940;2023-01-24T13:01:30;102995.03;;;2.97
76583;BMP280;65462;52.148;7.940;2023-01-24T13:09:24;102990.97;;;2.94
76583;BMP280;65462;52.148;7.940;2023-01-24T13:11:55;102992.00;;;2.93
76583;BMP280;65462;52.148;7.940;2023-01-24T13:14:44;102994.22;;;2.96
76583;BMP280;65462;52.148;7.940;2023-01-24T13:20:01;102978.16;;;2.99
76583;BMP280;65462;52.148;7.940;2023-01-24T13:22:51;102984.34;;;2.98
76583;BMP280;65462;52.148;7.940;2023-01-24T13:31:05;102986.56;;;3.01
76583;BMP280;65462;52.148;7.940;2023-01-24T13:33:42;102980.53;;;3.01
76583;BMP280;65462;52.148;7.940;2023-01-24T13:36:16;102979.75;;;3.00
76583;BMP280;65462;52.148;7.940;2023-01-24T13:38:43;102990.19;;;3.00
76583;BMP280;65462;52.148;7.940;2023-01-24T13:41:15;102997.81;;;2.95
76583;BMP280;65462;52.148;7.940;2023-01-24T13:43:55;102995.78;;;2.97
76583;BMP280;65462;52.148;7.940;2023-01-24T13:49:16;102995.22;;;2.95
76583;BMP280;65462;52.148;7.940;2023-01-24T13:51:44;102996.19;;;2.94
76583;BMP280;65462;52.148;7.940;2023-01-24T13:54:34;102997.81;;;2.95
76583;BMP280;65462;52.148;7.940;2023-01-24T13:57:27;103000.66;;;2.94
76583;BMP280;65462;52.148;7.940;2023-01-24T14:07:58;102998.25;;;2.92
76583;BMP280;65462;52.148;7.940;2023-01-24T14:10:35;102994.22;;;2.96
76583;BMP280;65462;52.148;7.940;2023-01-24T14:13:01;102991.78;;;2.95
76583;BMP280;65462;52.148;7.940;2023-01-24T14:15:37;102999.44;;;2.96
76583;BMP280;65462;52.148;7.940;2023-01-24T14:21:20;102992.81;;;2.94
76583;BMP280;65462;52.148;7.940;2023-01-24T14:23:51;102999.84;;;2.93
76583;BMP280;65462;52.148;7.940;2023-01-24T14:26:21;103003.47;;;2.92
76583;BMP280;65462;52.148;7.940;2023-01-24T14:28:54;103001.84;;;2.91
76583;BMP280;65462;52.148;7.940;2023-01-24T14:31:26;103005.50;;;2.90
76583;BMP280;65462;52.148;7.940;2023-01-24T14:36:37;103012.88;;;2.93
76583;BMP280;65462;52.148;7.940;2023-01-24T14:39:21;103006.50;;;2.89
76583;BMP280;65462;52.148;7.940;2023-01-24T14:41:50;103007.47;;;2.88
76583;BMP280;65462;52.148;7.940;2023-01-24T14:44:25;103008.50;;;2.87
76583;BMP280;65462;52.148;7.940;2023-01-24T14:46:59;103007.88;;;2.85
76583;BMP280;65462;52.148;7.940;2023-01-24T14:49:29;103012.50;;;2.90
76583;BMP280;65462;52.148;7.940;2023-01-24T14:51:55;103014.72;;;2.86
76583;BMP280;65462;52.148;7.940;2023-01-24T14:54:22;103012.09;;;2.86
76583;BMP280;65462;52.148;7.940;2023-01-24T14:56:48;103013.91;;;2.86
76583;BMP280;65462;52.148;7.940;2023-01-24T14:59:13;103011.53;;;2.84
76583;BMP280;65462;52.148;7.940;2023-01-24T15:01:41;103025.34;;;2.85
76583;BMP280;65462;52.148;7.940;2023-01-24T15:04:20;103001.84;;;2.78
76583;BMP280;65462;52.148;7.940;2023-01-24T15:06:46;103015.53;;;2.87
76583;BMP280;65462;52.148;7.940;2023-01-24T15:09:27;103011.91;;;2.88
76583;BMP280;65462;52.148;7.940;2023-01-24T15:11:52;103010.91;;;2.82
76583;BMP280;65462;52.148;7.940;2023-01-24T15:14:18;103002.25;;;2.75
76583;BMP280;65462;52.148;7.940;2023-01-24T15:16:54;103006.28;;;2.78
76583;BMP280;65462;52.148;7.940;2023-01-24T15:19:22;103007.47;;;2.75
76583;BMP280;65462;52.148;7.940;2023-01-24T15:21:51;103006.69;;;2.74
76583;BMP280;65462;52.148;7.940;2023-01-24T15:24:28;103003.69;;;2.78
76583;BMP280;65462;52.148;7.940;2023-01-24T15:26:55;103007.06;;;2.78
76583;BMP280;65462;52.148;7.940;2023-01-24T15:29:38;103000.66;;;2.81
76583;BMP280;65462;52.148;7.940;2023-01-24T15:32:28;103000.66;;;2.74
76583;BMP280;65462;52.148;7.940;2023-01-24T15:35:19;102999.44;;;2.70
76583;BMP280;65462;52.148;7.940;2023-01-24T15:37:45;103003.06;;;2.69
76583;BMP280;65462;52.148;7.940;2023-01-24T15:40:18;103001.06;;;2.64
76583;BMP280;65462;52.148;7.940;2023-01-24T15:42:47;102979.00;;;2.60
76583;BMP280;65462;52.148;7.940;2023-01-24T15:45:35;102988.63;;;2.60
76583;BMP280;65462;52.148;7.940;2023-01-24T15:48:14;102987.00;;;2.59
76583;BMP280;65462;52.148;7.940;2023-01-24T15:51:19;102986.00;;;2.60
76583;BMP280;65462;52.148;7.940;2023-01-24T15:53:48;102991.25;;;2.60
76583;BMP280;65462;52.148;7.940;2023-01-24T15:56:21;102981.38;;;2.55
76583;BMP280;65462;52.148;7.940;2023-01-24T15:58:47;102989.44;;;2.60
76583;BMP280;65462;52.148;7.940;2023-01-24T16:01:13;102980.59;;;2.55